sensor_id;sensor_type;location;lat;lon;timestamp;P1;durP1;ratioP1;P2;durP2;ratioP2
62933;SDS011;49038;47.600;19.242;2022-09-01T00:02:44;2.72;;;1.45;;
62933;SDS011;49038;47.600;19.242;2022-09-01T00:05:46;2.08;;;1.27;;
62933;SDS011;49038;47.600;19.242;2022-09-01T00:08:52;3.28;;;1.20;;
62933;SDS011;49038;47.600;19.242;2022-09-01T00:11:56;1.52;;;1.10;;
62933;SDS011;49038;47.600;19.242;2022-09-01T00:14:58;2.78;;;1.70;;
62933;SDS011;49038;47.600;19.242;2022-09-01T00:18:00;3.70;;;1.12;;
62933;SDS011;49038;47.600;19.242;2022-09-01T00:21:03;1.92;;;1.15;;
62933;SDS011;49038;47.600;19.242;2022-09-01T00:24:06;2.95;;;1.30;;
62933;SDS011;49038;47.600;19.242;2022-09-01T00:27:09;3.03;;;1.52;;
62933;SDS011;49038;47.600;19.242;2022-09-01T00:30:11;3.42;;;1.20;;
62933;SDS011;49038;47.600;19.242;2022-09-01T00:33:13;13.05;;;1.58;;
62933;SDS011;49038;47.600;19.242;2022-09-01T00:36:16;6.60;;;1.70;;
62933;SDS011;49038;47.600;19.242;2022-09-01T00:39:19;2.45;;;1.37;;
62933;SDS011;49038;47.600;19.242;2022-09-01T00:42:21;4.40;;;1.58;;
62933;SDS011;49038;47.600;19.242;2022-09-01T00:45:24;6.82;;;1.50;;
62933;SDS011;49038;47.600;19.242;2022-09-01T00:48:26;3.20;;;1.95;;
62933;SDS011;49038;47.600;19.242;2022-09-01T00:51:29;3.12;;;1.50;;
62933;SDS011;49038;47.600;19.242;2022-09-01T00:54:33;2.72;;;1.80;;
62933;SDS011;49038;47.600;19.242;2022-09-01T00:57:37;3.95;;;1.50;;
62933;SDS011;49038;47.600;19.242;2022-09-01T01:00:40;1.70;;;1.60;;
62933;SDS011;49038;47.600;19.242;2022-09-01T01:03:43;4.55;;;2.25;;
62933;SDS011;49038;47.600;19.242;2022-09-01T01:06:54;2.35;;;1.75;;
62933;SDS011;49038;47.600;19.242;2022-09-01T01:10:07;2.22;;;1.62;;
62933;SDS011;49038;47.600;19.242;2022-09-01T01:13:14;3.55;;;2.03;;
62933;SDS011;49038;47.600;19.242;2022-09-01T01:16:18;3.37;;;2.00;;
62933;SDS011;49038;47.600;19.242;2022-09-01T01:19:25;4.97;;;1.75;;
62933;SDS011;49038;47.600;19.242;2022-09-01T01:26:20;3.08;;;1.55;;
62933;SDS011;49038;47.600;19.242;2022-09-01T01:29:22;1.58;;;1.30;;
62933;SDS011;49038;47.600;19.242;2022-09-01T01:32:24;2.37;;;1.83;;
62933;SDS011;49038;47.600;19.242;2022-09-01T01:35:27;2.00;;;1.60;;
62933;SDS011;49038;47.600;19.242;2022-09-01T01:38:30;2.10;;;1.60;;
62933;SDS011;49038;47.600;19.242;2022-09-01T01:41:33;2.83;;;1.77;;
62933;SDS011;49038;47.600;19.242;2022-09-01T01:44:36;3.30;;;1.65;;
62933;SDS011;49038;47.600;19.242;2022-09-01T01:47:39;2.03;;;1.50;;
62933;SDS011;49038;47.600;19.242;2022-09-01T01:50:41;7.87;;;2.00;;
62933;SDS011;49038;47.600;19.242;2022-09-01T01:53:43;6.12;;;1.73;;
62933;SDS011;49038;47.600;19.242;2022-09-01T01:56:46;4.10;;;1.98;;
62933;SDS011;49038;47.600;19.242;2022-09-01T01:59:48;1.73;;;1.55;;
62933;SDS011;49038;47.600;19.242;2022-09-01T02:02:50;1.75;;;1.35;;
62933;SDS011;49038;47.600;19.242;2022-09-01T02:05:54;3.83;;;1.50;;
62933;SDS011;49038;47.600;19.242;2022-09-01T02:08:57;7.62;;;3.08;;
62933;SDS011;49038;47.600;19.242;2022-09-01T02:11:59;6.45;;;1.85;;
62933;SDS011;49038;47.600;19.242;2022-09-01T02:15:02;4.97;;;2.17;;
62933;SDS011;49038;47.600;19.242;2022-09-01T02:18:04;3.50;;;1.40;;
62933;SDS011;49038;47.600;19.242;2022-09-01T02:21:08;2.05;;;1.70;;
62933;SDS011;49038;47.600;19.242;2022-09-01T02:24:19;1.92;;;1.50;;
62933;SDS011;49038;47.600;19.242;2022-09-01T02:27:23;3.05;;;2.05;;
62933;SDS011;49038;47.600;19.242;2022-09-01T02:30:26;3.87;;;1.55;;
62933;SDS011;49038;47.600;19.242;2022-09-01T02:33:30;3.92;;;1.87;;
62933;SDS011;49038;47.600;19.242;2022-09-01T02:36:33;1.80;;;1.70;;
62933;SDS011;49038;47.600;19.242;2022-09-01T02:39:36;3.80;;;1.67;;
62933;SDS011;49038;47.600;19.242;2022-09-01T02:42:38;2.90;;;1.50;;
62933;SDS011;49038;47.600;19.242;2022-09-01T02:45:43;2.95;;;1.90;;
62933;SDS011;49038;47.600;19.242;2022-09-01T02:48:48;3.53;;;2.35;;
62933;SDS011;49038;47.600;19.242;2022-09-01T02:51:52;4.32;;;2.53;;
62933;SDS011;49038;47.600;19.242;2022-09-01T02:54:58;3.97;;;1.73;;
62933;SDS011;49038;47.600;19.242;2022-09-01T02:58:01;2.28;;;2.05;;
62933;SDS011;49038;47.600;19.242;2022-09-01T03:01:04;2.60;;;1.85;;
62933;SDS011;49038;47.600;19.242;2022-09-01T03:04:10;2.78;;;1.70;;
62933;SDS011;49038;47.600;19.242;2022-09-01T03:07:13;7.18;;;2.03;;
62933;SDS011;49038;47.600;19.242;2022-09-01T03:10:19;2.78;;;1.67;;
62933;SDS011;49038;47.600;19.242;2022-09-01T03:13:25;2.87;;;1.70;;
62933;SDS011;49038;47.600;19.242;2022-09-01T03:16:28;2.20;;;1.80;;
62933;SDS011;49038;47.600;19.242;2022-09-01T03:19:34;3.05;;;1.92;;
62933;SDS011;49038;47.600;19.242;2022-09-01T03:22:43;1.80;;;1.52;;
62933;SDS011;49038;47.600;19.242;2022-09-01T03:25:47;5.05;;;1.95;;
62933;SDS011;49038;47.600;19.242;2022-09-01T03:28:50;6.82;;;2.20;;
62933;SDS011;49038;47.600;19.242;2022-09-01T03:31:53;2.80;;;2.30;;
62933;SDS011;49038;47.600;19.242;2022-09-01T03:34:55;3.12;;;2.00;;
62933;SDS011;49038;47.600;19.242;2022-09-01T03:37:58;2.25;;;1.95;;
62933;SDS011;49038;47.600;19.242;2022-09-01T03:41:03;3.08;;;1.83;;
62933;SDS011;49038;47.600;19.242;2022-09-01T03:44:06;3.90;;;2.10;;
62933;SDS011;49038;47.600;19.242;2022-09-01T03:47:12;6.28;;;1.85;;
62933;SDS011;49038;47.600;19.242;2022-09-01T03:50:17;6.57;;;2.12;;
62933;SDS011;49038;47.600;19.242;2022-09-01T03:53:23;3.42;;;2.10;;
62933;SDS011;49038;47.600;19.242;2022-09-01T03:56:28;5.68;;;2.10;;
62933;SDS011;49038;47.600;19.242;2022-09-01T03:59:31;4.85;;;2.45;;
62933;SDS011;49038;47.600;19.242;2022-09-01T04:02:33;2.72;;;2.45;;
62933;SDS011;49038;47.600;19.242;2022-09-01T04:05:36;6.07;;;2.42;;
62933;SDS011;49038;47.600;19.242;2022-09-01T04:08:39;4.37;;;1.90;;
62933;SDS011;49038;47.600;19.242;2022-09-01T04:11:41;4.53;;;2.50;;
62933;SDS011;49038;47.600;19.242;2022-09-01T04:14:47;4.40;;;2.20;;
62933;SDS011;49038;47.600;19.242;2022-09-01T04:17:49;6.93;;;2.40;;
62933;SDS011;49038;47.600;19.242;2022-09-01T04:21:21;3.40;;;2.30;;
62933;SDS011;49038;47.600;19.242;2022-09-01T04:24:23;4.95;;;2.40;;
62933;SDS011;49038;47.600;19.242;2022-09-01T04:27:28;5.35;;;2.10;;
62933;SDS011;49038;47.600;19.242;2022-09-01T04:30:31;5.62;;;2.83;;
62933;SDS011;49038;47.600;19.242;2022-09-01T04:33:35;3.25;;;2.00;;
62933;SDS011;49038;47.600;19.242;2022-09-01T04:36:41;2.50;;;2.12;;
62933;SDS011;49038;47.600;19.242;2022-09-01T04:39:49;4.37;;;2.10;;
62933;SDS011;49038;47.600;19.242;2022-09-01T04:42:57;2.28;;;2.00;;
62933;SDS011;49038;47.600;19.242;2022-09-01T04:45:59;2.55;;;1.95;;
62933;SDS011;49038;47.600;19.242;2022-09-01T04:49:04;5.87;;;1.92;;
62933;SDS011;49038;47.600;19.242;2022-09-01T04:52:14;6.32;;;2.85;;
62933;SDS011;49038;47.600;19.242;2022-09-01T04:55:16;2.55;;;1.92;;
62933;SDS011;49038;47.600;19.242;2022-09-01T04:58:19;3.80;;;2.30;;
62933;SDS011;49038;47.600;19.242;2022-09-01T05:01:24;7.25;;;2.10;;
62933;SDS011;49038;47.600;19.242;2022-09-01T05:04:29;3.53;;;1.87;;
62933;SDS011;49038;47.600;19.242;2022-09-01T05:07:34;8.07;;;2.10;;
62933;SDS011;49038;47.600;19.242;2022-09-01T05:10:42;7.90;;;1.70;;
62933;SDS011;49038;47.600;19.242;2022-09-01T05:13:46;3.65;;;2.15;;
62933;SDS011;49038;47.600;19.242;2022-09-01T05:16:50;17.10;;;3.58;;
62933;SDS011;49038;47.600;19.242;2022-09-01T05:19:57;2.72;;;2.35;;
62933;SDS011;49038;47.600;19.242;2022-09-01T05:23:00;5.93;;;2.47;;
62933;SDS011;49038;47.600;19.242;2022-09-01T05:26:03;5.80;;;2.42;;
62933;SDS011;49038;47.600;19.242;2022-09-01T05:29:08;2.92;;;2.05;;
62933;SDS011;49038;47.600;19.242;2022-09-01T05:32:18;3.33;;;1.87;;
62933;SDS011;49038;47.600;19.242;2022-09-01T05:35:22;9.43;;;2.17;;
62933;SDS011;49038;47.600;19.242;2022-09-01T05:38:33;2.37;;;1.70;;
62933;SDS011;49038;47.600;19.242;2022-09-01T05:41:37;2.95;;;2.10;;
62933;SDS011;49038;47.600;19.242;2022-09-01T05:44:42;5.30;;;2.50;;
62933;SDS011;49038;47.600;19.242;2022-09-01T05:47:45;2.78;;;1.80;;
62933;SDS011;49038;47.600;19.242;2022-09-01T05:50:49;2.83;;;2.00;;
62933;SDS011;49038;47.600;19.242;2022-09-01T05:53:57;4.80;;;1.87;;
62933;SDS011;49038;47.600;19.242;2022-09-01T05:57:02;3.47;;;1.90;;
62933;SDS011;49038;47.600;19.242;2022-09-01T06:00:25;3.75;;;1.60;;
62933;SDS011;49038;47.600;19.242;2022-09-01T06:03:35;3.65;;;2.20;;
62933;SDS011;49038;47.600;19.242;2022-09-01T06:06:40;1.70;;;1.58;;
62933;SDS011;49038;47.600;19.242;2022-09-01T06:10:07;2.15;;;1.73;;
62933;SDS011;49038;47.600;19.242;2022-09-01T06:13:10;4.47;;;2.22;;
62933;SDS011;49038;47.600;19.242;2022-09-01T06:16:15;4.60;;;1.80;;
62933;SDS011;49038;47.600;19.242;2022-09-01T06:19:18;4.15;;;2.00;;
62933;SDS011;49038;47.600;19.242;2022-09-01T06:22:21;11.05;;;2.08;;
62933;SDS011;49038;47.600;19.242;2022-09-01T06:25:24;6.87;;;2.40;;
62933;SDS011;49038;47.600;19.242;2022-09-01T06:28:31;3.80;;;2.00;;
62933;SDS011;49038;47.600;19.242;2022-09-01T06:31:33;4.32;;;1.65;;
62933;SDS011;49038;47.600;19.242;2022-09-01T06:34:41;1.70;;;1.60;;
62933;SDS011;49038;47.600;19.242;2022-09-01T06:37:45;4.93;;;1.70;;
62933;SDS011;49038;47.600;19.242;2022-09-01T06:40:48;4.90;;;2.00;;
62933;SDS011;49038;47.600;19.242;2022-09-01T06:43:55;4.30;;;1.80;;
62933;SDS011;49038;47.600;19.242;2022-09-01T06:46:58;3.17;;;1.75;;
62933;SDS011;49038;47.600;19.242;2022-09-01T06:50:01;2.20;;;1.50;;
62933;SDS011;49038;47.600;19.242;2022-09-01T06:53:04;2.03;;;1.85;;
62933;SDS011;49038;47.600;19.242;2022-09-01T06:56:31;3.58;;;1.58;;
62933;SDS011;49038;47.600;19.242;2022-09-01T06:59:45;2.87;;;1.85;;
62933;SDS011;49038;47.600;19.242;2022-09-01T07:02:54;4.15;;;2.08;;
62933;SDS011;49038;47.600;19.242;2022-09-01T07:05:58;14.05;;;2.45;;
62933;SDS011;49038;47.600;19.242;2022-09-01T07:09:03;1.92;;;1.70;;
62933;SDS011;49038;47.600;19.242;2022-09-01T07:12:25;2.30;;;1.62;;
62933;SDS011;49038;47.600;19.242;2022-09-01T07:15:28;7.00;;;1.60;;
62933;SDS011;49038;47.600;19.242;2022-09-01T07:18:54;3.75;;;1.85;;
62933;SDS011;49038;47.600;19.242;2022-09-01T07:21:59;3.60;;;2.17;;
62933;SDS011;49038;47.600;19.242;2022-09-01T07:25:09;3.53;;;1.90;;
62933;SDS011;49038;47.600;19.242;2022-09-01T07:28:33;2.95;;;1.60;;
62933;SDS011;49038;47.600;19.242;2022-09-01T07:31:39;5.72;;;2.28;;
62933;SDS011;49038;47.600;19.242;2022-09-01T07:35:04;1.90;;;1.60;;
62933;SDS011;49038;47.600;19.242;2022-09-01T07:38:13;1.80;;;1.60;;
62933;SDS011;49038;47.600;19.242;2022-09-01T07:41:35;4.10;;;1.60;;
62933;SDS011;49038;47.600;19.242;2022-09-01T07:45:01;3.35;;;1.65;;
62933;SDS011;49038;47.600;19.242;2022-09-01T07:48:29;2.15;;;1.70;;
62933;SDS011;49038;47.600;19.242;2022-09-01T07:51:51;3.92;;;1.83;;
62933;SDS011;49038;47.600;19.242;2022-09-01T07:54:54;2.60;;;1.70;;
62933;SDS011;49038;47.600;19.242;2022-09-01T07:57:56;2.62;;;1.65;;
62933;SDS011;49038;47.600;19.242;2022-09-01T08:00:59;2.00;;;1.50;;
62933;SDS011;49038;47.600;19.242;2022-09-01T08:04:05;6.03;;;1.77;;
62933;SDS011;49038;47.600;19.242;2022-09-01T08:07:08;4.43;;;1.58;;
62933;SDS011;49038;47.600;19.242;2022-09-01T08:10:16;3.30;;;1.73;;
62933;SDS011;49038;47.600;19.242;2022-09-01T08:13:21;2.62;;;1.70;;
62933;SDS011;49038;47.600;19.242;2022-09-01T08:16:24;2.92;;;1.77;;
62933;SDS011;49038;47.600;19.242;2022-09-01T08:19:40;5.82;;;2.08;;
62933;SDS011;49038;47.600;19.242;2022-09-01T08:22:44;5.43;;;1.60;;
62933;SDS011;49038;47.600;19.242;2022-09-01T08:25:47;2.42;;;1.40;;
62933;SDS011;49038;47.600;19.242;2022-09-01T08:28:52;3.58;;;1.73;;
62933;SDS011;49038;47.600;19.242;2022-09-01T08:31:56;1.92;;;1.42;;
62933;SDS011;49038;47.600;19.242;2022-09-01T08:35:00;2.95;;;1.70;;
62933;SDS011;49038;47.600;19.242;2022-09-01T08:38:02;2.70;;;1.58;;
62933;SDS011;49038;47.600;19.242;2022-09-01T08:41:05;3.67;;;2.08;;
62933;SDS011;49038;47.600;19.242;2022-09-01T08:47:38;2.47;;;1.50;;
62933;SDS011;49038;47.600;19.242;2022-09-01T08:54:44;1.62;;;1.40;;
62933;SDS011;49038;47.600;19.242;2022-09-01T08:57:48;1.77;;;1.67;;
62933;SDS011;49038;47.600;19.242;2022-09-01T09:01:00;2.40;;;1.50;;
62933;SDS011;49038;47.600;19.242;2022-09-01T09:04:08;2.50;;;1.58;;
62933;SDS011;49038;47.600;19.242;2022-09-01T09:17:51;2.37;;;1.45;;
62933;SDS011;49038;47.600;19.242;2022-09-01T09:21:04;2.12;;;1.60;;
62933;SDS011;49038;47.600;19.242;2022-09-01T09:27:53;1.50;;;1.40;;
62933;SDS011;49038;47.600;19.242;2022-09-01T09:34:36;1.77;;;1.50;;
62933;SDS011;49038;47.600;19.242;2022-09-01T09:37:40;1.73;;;1.52;;
62933;SDS011;49038;47.600;19.242;2022-09-01T09:40:54;7.18;;;1.92;;
62933;SDS011;49038;47.600;19.242;2022-09-01T09:44:28;3.05;;;1.45;;
62933;SDS011;49038;47.600;19.242;2022-09-01T09:50:46;1.73;;;1.25;;
62933;SDS011;49038;47.600;19.242;2022-09-01T09:53:50;1.85;;;1.20;;
62933;SDS011;49038;47.600;19.242;2022-09-01T09:57:11;2.03;;;1.48;;
62933;SDS011;49038;47.600;19.242;2022-09-01T10:00:20;1.30;;;1.20;;
62933;SDS011;49038;47.600;19.242;2022-09-01T10:03:43;2.58;;;1.10;;
62933;SDS011;49038;47.600;19.242;2022-09-01T10:06:50;1.08;;;0.90;;
62933;SDS011;49038;47.600;19.242;2022-09-01T10:09:56;1.25;;;0.90;;
62933;SDS011;49038;47.600;19.242;2022-09-01T10:13:02;2.28;;;1.25;;
62933;SDS011;49038;47.600;19.242;2022-09-01T10:16:08;1.70;;;1.10;;
62933;SDS011;49038;47.600;19.242;2022-09-01T10:19:23;1.87;;;1.10;;
62933;SDS011;49038;47.600;19.242;2022-09-01T10:22:25;2.30;;;1.20;;
62933;SDS011;49038;47.600;19.242;2022-09-01T10:25:29;8.18;;;2.08;;
62933;SDS011;49038;47.600;19.242;2022-09-01T10:28:33;2.03;;;1.00;;
62933;SDS011;49038;47.600;19.242;2022-09-01T10:31:55;3.08;;;1.00;;
62933;SDS011;49038;47.600;19.242;2022-09-01T10:35:22;1.35;;;0.95;;
62933;SDS011;49038;47.600;19.242;2022-09-01T10:38:28;1.98;;;0.88;;
62933;SDS011;49038;47.600;19.242;2022-09-01T10:45:01;1.33;;;0.80;;
62933;SDS011;49038;47.600;19.242;2022-09-01T10:51:43;1.20;;;0.90;;
62933;SDS011;49038;47.600;19.242;2022-09-01T10:54:53;1.67;;;1.00;;
62933;SDS011;49038;47.600;19.242;2022-09-01T11:07:52;1.05;;;0.70;;
62933;SDS011;49038;47.600;19.242;2022-09-01T11:14:50;0.70;;;0.70;;
62933;SDS011;49038;47.600;19.242;2022-09-01T11:17:55;2.92;;;0.80;;
62933;SDS011;49038;47.600;19.242;2022-09-01T11:21:14;2.03;;;0.90;;
62933;SDS011;49038;47.600;19.242;2022-09-01T11:27:59;0.88;;;0.80;;
62933;SDS011;49038;47.600;19.242;2022-09-01T11:37:22;1.33;;;0.70;;
62933;SDS011;49038;47.600;19.242;2022-09-01T11:40:30;1.48;;;0.82;;
62933;SDS011;49038;47.600;19.242;2022-09-01T11:43:33;0.77;;;0.70;;
62933;SDS011;49038;47.600;19.242;2022-09-01T11:46:36;1.75;;;1.20;;
62933;SDS011;49038;47.600;19.242;2022-09-01T11:49:46;1.10;;;0.82;;
62933;SDS011;49038;47.600;19.242;2022-09-01T11:52:55;0.90;;;0.70;;
62933;SDS011;49038;47.600;19.242;2022-09-01T11:56:13;0.93;;;0.80;;
62933;SDS011;49038;47.600;19.242;2022-09-01T11:59:30;0.80;;;0.70;;
62933;SDS011;49038;47.600;19.242;2022-09-01T12:02:41;1.52;;;0.90;;
62933;SDS011;49038;47.600;19.242;2022-09-01T12:05:59;0.98;;;0.70;;
62933;SDS011;49038;47.600;19.242;2022-09-01T12:09:04;0.80;;;0.60;;
62933;SDS011;49038;47.600;19.242;2022-09-01T12:12:07;3.10;;;1.00;;
62933;SDS011;49038;47.600;19.242;2022-09-01T12:15:35;0.57;;;0.50;;
62933;SDS011;49038;47.600;19.242;2022-09-01T12:19:01;1.48;;;0.90;;
62933;SDS011;49038;47.600;19.242;2022-09-01T12:22:06;1.37;;;0.82;;
62933;SDS011;49038;47.600;19.242;2022-09-01T12:25:19;0.82;;;0.55;;
62933;SDS011;49038;47.600;19.242;2022-09-01T12:28:24;0.88;;;0.70;;
62933;SDS011;49038;47.600;19.242;2022-09-01T12:31:33;1.52;;;0.80;;
62933;SDS011;49038;47.600;19.242;2022-09-01T12:37:42;0.82;;;0.70;;
62933;SDS011;49038;47.600;19.242;2022-09-01T12:40:49;1.05;;;0.70;;
62933;SDS011;49038;47.600;19.242;2022-09-01T12:43:55;0.93;;;0.70;;
62933;SDS011;49038;47.600;19.242;2022-09-01T12:46:58;0.60;;;0.60;;
62933;SDS011;49038;47.600;19.242;2022-09-01T12:53:13;1.08;;;0.70;;
62933;SDS011;49038;47.600;19.242;2022-09-01T12:56:20;1.30;;;0.93;;
62933;SDS011;49038;47.600;19.242;2022-09-01T13:02:39;1.85;;;0.73;;
62933;SDS011;49038;47.600;19.242;2022-09-01T13:05:44;2.17;;;0.60;;
62933;SDS011;49038;47.600;19.242;2022-09-01T13:08:53;1.58;;;0.50;;
62933;SDS011;49038;47.600;19.242;2022-09-01T13:12:17;2.05;;;0.73;;
62933;SDS011;49038;47.600;19.242;2022-09-01T13:15:21;0.50;;;0.50;;
62933;SDS011;49038;47.600;19.242;2022-09-01T13:18:24;0.75;;;0.70;;
62933;SDS011;49038;47.600;19.242;2022-09-01T13:21:27;1.95;;;0.50;;
62933;SDS011;49038;47.600;19.242;2022-09-01T13:24:29;1.17;;;0.60;;
62933;SDS011;49038;47.600;19.242;2022-09-01T13:27:32;2.25;;;0.75;;
62933;SDS011;49038;47.600;19.242;2022-09-01T13:30:35;8.60;;;0.75;;
62933;SDS011;49038;47.600;19.242;2022-09-01T13:33:37;0.65;;;0.60;;
62933;SDS011;49038;47.600;19.242;2022-09-01T13:37:00;0.75;;;0.60;;
62933;SDS011;49038;47.600;19.242;2022-09-01T13:40:03;0.40;;;0.40;;
62933;SDS011;49038;47.600;19.242;2022-09-01T13:43:07;1.08;;;0.60;;
62933;SDS011;49038;47.600;19.242;2022-09-01T13:46:09;0.90;;;0.62;;
62933;SDS011;49038;47.600;19.242;2022-09-01T13:49:12;0.73;;;0.50;;
62933;SDS011;49038;47.600;19.242;2022-09-01T13:52:34;1.23;;;1.05;;
62933;SDS011;49038;47.600;19.242;2022-09-01T13:55:37;3.40;;;0.62;;
62933;SDS011;49038;47.600;19.242;2022-09-01T13:58:40;1.37;;;0.70;;
62933;SDS011;49038;47.600;19.242;2022-09-01T14:01:43;1.27;;;0.75;;
62933;SDS011;49038;47.600;19.242;2022-09-01T14:04:45;2.40;;;1.12;;
62933;SDS011;49038;47.600;19.242;2022-09-01T14:07:47;0.98;;;0.50;;
62933;SDS011;49038;47.600;19.242;2022-09-01T14:10:51;1.67;;;0.80;;
62933;SDS011;49038;47.600;19.242;2022-09-01T14:13:54;5.18;;;0.90;;
62933;SDS011;49038;47.600;19.242;2022-09-01T14:16:56;1.35;;;0.50;;
62933;SDS011;49038;47.600;19.242;2022-09-01T14:19:58;0.70;;;0.70;;
62933;SDS011;49038;47.600;19.242;2022-09-01T14:23:01;1.80;;;0.70;;
62933;SDS011;49038;47.600;19.242;2022-09-01T14:26:07;0.50;;;0.50;;
62933;SDS011;49038;47.600;19.242;2022-09-01T14:29:12;1.90;;;0.60;;
62933;SDS011;49038;47.600;19.242;2022-09-01T14:32:15;0.68;;;0.60;;
62933;SDS011;49038;47.600;19.242;2022-09-01T14:35:19;1.40;;;0.80;;
62933;SDS011;49038;47.600;19.242;2022-09-01T14:38:25;5.45;;;1.05;;
62933;SDS011;49038;47.600;19.242;2022-09-01T14:41:27;2.33;;;0.60;;
62933;SDS011;49038;47.600;19.242;2022-09-01T14:44:30;6.80;;;0.93;;
62933;SDS011;49038;47.600;19.242;2022-09-01T14:47:34;2.47;;;0.65;;
62933;SDS011;49038;47.600;19.242;2022-09-01T14:50:41;3.97;;;1.12;;
62933;SDS011;49038;47.600;19.242;2022-09-01T14:53:44;0.85;;;0.60;;
62933;SDS011;49038;47.600;19.242;2022-09-01T14:56:47;1.30;;;0.62;;
62933;SDS011;49038;47.600;19.242;2022-09-01T15:00:10;0.52;;;0.52;;
62933;SDS011;49038;47.600;19.242;2022-09-01T15:03:13;0.95;;;0.88;;
62933;SDS011;49038;47.600;19.242;2022-09-01T15:06:20;0.88;;;0.70;;
62933;SDS011;49038;47.600;19.242;2022-09-01T15:09:23;1.80;;;0.50;;
62933;SDS011;49038;47.600;19.242;2022-09-01T15:12:25;0.60;;;0.60;;
62933;SDS011;49038;47.600;19.242;2022-09-01T15:15:31;0.60;;;0.60;;
62933;SDS011;49038;47.600;19.242;2022-09-01T15:18:34;1.48;;;0.80;;
62933;SDS011;49038;47.600;19.242;2022-09-01T15:21:36;0.60;;;0.60;;
62933;SDS011;49038;47.600;19.242;2022-09-01T15:24:40;1.05;;;0.60;;
62933;SDS011;49038;47.600;19.242;2022-09-01T15:27:42;0.98;;;0.60;;
62933;SDS011;49038;47.600;19.242;2022-09-01T15:30:45;1.73;;;0.70;;
62933;SDS011;49038;47.600;19.242;2022-09-01T15:33:47;1.30;;;0.52;;
62933;SDS011;49038;47.600;19.242;2022-09-01T15:36:49;4.45;;;0.60;;
62933;SDS011;49038;47.600;19.242;2022-09-01T15:39:52;0.60;;;0.50;;
62933;SDS011;49038;47.600;19.242;2022-09-01T15:42:54;1.00;;;0.90;;
62933;SDS011;49038;47.600;19.242;2022-09-01T15:45:57;0.80;;;0.60;;
62933;SDS011;49038;47.600;19.242;2022-09-01T15:49:02;13.38;;;1.10;;
62933;SDS011;49038;47.600;19.242;2022-09-01T15:52:06;2.80;;;0.82;;
62933;SDS011;49038;47.600;19.242;2022-09-01T15:55:08;6.15;;;0.62;;
62933;SDS011;49038;47.600;19.242;2022-09-01T15:58:12;1.42;;;0.88;;
62933;SDS011;49038;47.600;19.242;2022-09-01T16:01:16;1.95;;;0.60;;
62933;SDS011;49038;47.600;19.242;2022-09-01T16:04:19;2.67;;;0.60;;
62933;SDS011;49038;47.600;19.242;2022-09-01T16:07:28;1.55;;;0.73;;
62933;SDS011;49038;47.600;19.242;2022-09-01T16:10:30;0.70;;;0.70;;
62933;SDS011;49038;47.600;19.242;2022-09-01T16:13:38;3.90;;;0.95;;
62933;SDS011;49038;47.600;19.242;2022-09-01T16:20:09;0.90;;;0.60;;
62933;SDS011;49038;47.600;19.242;2022-09-01T16:23:19;2.80;;;1.05;;
62933;SDS011;49038;47.600;19.242;2022-09-01T16:26:24;20.52;;;2.45;;
62933;SDS011;49038;47.600;19.242;2022-09-01T16:32:46;0.93;;;0.70;;
62933;SDS011;49038;47.600;19.242;2022-09-01T16:49:35;1.05;;;0.80;;
62933;SDS011;49038;47.600;19.242;2022-09-01T17:05:54;1.08;;;0.90;;
62933;SDS011;49038;47.600;19.242;2022-09-01T17:12:19;3.83;;;1.05;;
62933;SDS011;49038;47.600;19.242;2022-09-01T17:15:34;1.60;;;1.00;;
62933;SDS011;49038;47.600;19.242;2022-09-01T17:18:43;5.65;;;1.30;;
62933;SDS011;49038;47.600;19.242;2022-09-01T17:21:57;4.32;;;1.45;;
62933;SDS011;49038;47.600;19.242;2022-09-01T17:25:08;5.95;;;1.55;;
62933;SDS011;49038;47.600;19.242;2022-09-01T17:28:17;4.18;;;1.55;;
62933;SDS011;49038;47.600;19.242;2022-09-01T17:58:00;5.10;;;1.20;;
62933;SDS011;49038;47.600;19.242;2022-09-01T18:08:21;1.60;;;1.20;;
62933;SDS011;49038;47.600;19.242;2022-09-01T18:11:48;1.48;;;1.00;;
62933;SDS011;49038;47.600;19.242;2022-09-01T18:21:37;2.33;;;1.30;;
62933;SDS011;49038;47.600;19.242;2022-09-01T18:25:04;1.52;;;1.15;;
62933;SDS011;49038;47.600;19.242;2022-09-01T18:28:09;1.20;;;1.10;;
62933;SDS011;49038;47.600;19.242;2022-09-01T18:41:39;1.30;;;1.08;;
62933;SDS011;49038;47.600;19.242;2022-09-01T18:55:31;5.30;;;1.35;;
62933;SDS011;49038;47.600;19.242;2022-09-01T19:08:38;1.80;;;1.52;;
62933;SDS011;49038;47.600;19.242;2022-09-01T19:21:44;3.60;;;2.20;;
62933;SDS011;49038;47.600;19.242;2022-09-01T19:24:59;3.45;;;1.40;;
62933;SDS011;49038;47.600;19.242;2022-09-01T19:28:28;3.97;;;1.48;;
62933;SDS011;49038;47.600;19.242;2022-09-01T19:31:38;1.95;;;1.40;;
62933;SDS011;49038;47.600;19.242;2022-09-01T19:34:54;3.30;;;1.73;;
62933;SDS011;49038;47.600;19.242;2022-09-01T19:38:02;3.62;;;1.73;;
62933;SDS011;49038;47.600;19.242;2022-09-01T19:45:19;2.03;;;1.23;;
62933;SDS011;49038;47.600;19.242;2022-09-01T19:51:30;2.10;;;1.40;;
62933;SDS011;49038;47.600;19.242;2022-09-01T19:54:51;2.92;;;1.60;;
62933;SDS011;49038;47.600;19.242;2022-09-01T20:01:15;2.37;;;1.70;;
62933;SDS011;49038;47.600;19.242;2022-09-01T20:07:36;4.87;;;1.23;;
62933;SDS011;49038;47.600;19.242;2022-09-01T20:17:48;1.83;;;1.40;;
62933;SDS011;49038;47.600;19.242;2022-09-01T20:20:53;4.93;;;1.77;;
62933;SDS011;49038;47.600;19.242;2022-09-01T20:23:58;2.35;;;1.30;;
62933;SDS011;49038;47.600;19.242;2022-09-01T20:30:20;2.47;;;1.50;;
62933;SDS011;49038;47.600;19.242;2022-09-01T20:33:36;3.45;;;1.45;;
62933;SDS011;49038;47.600;19.242;2022-09-01T20:36:43;1.55;;;1.33;;
62933;SDS011;49038;47.600;19.242;2022-09-01T20:43:23;2.25;;;1.50;;
62933;SDS011;49038;47.600;19.242;2022-09-01T20:46:28;2.28;;;1.37;;
62933;SDS011;49038;47.600;19.242;2022-09-01T20:49:35;2.65;;;1.08;;
62933;SDS011;49038;47.600;19.242;2022-09-01T20:55:58;1.37;;;1.27;;
62933;SDS011;49038;47.600;19.242;2022-09-01T20:59:32;2.42;;;1.10;;
62933;SDS011;49038;47.600;19.242;2022-09-01T21:06:18;1.42;;;0.98;;
62933;SDS011;49038;47.600;19.242;2022-09-01T21:22:50;1.42;;;1.20;;
62933;SDS011;49038;47.600;19.242;2022-09-01T21:25:53;0.93;;;0.85;;
62933;SDS011;49038;47.600;19.242;2022-09-01T21:28:56;0.95;;;0.90;;
62933;SDS011;49038;47.600;19.242;2022-09-01T21:31:59;2.05;;;0.80;;
62933;SDS011;49038;47.600;19.242;2022-09-01T21:35:02;0.80;;;0.77;;
62933;SDS011;49038;47.600;19.242;2022-09-01T21:38:05;3.42;;;1.45;;
62933;SDS011;49038;47.600;19.242;2022-09-01T21:41:08;1.60;;;1.00;;
62933;SDS011;49038;47.600;19.242;2022-09-01T21:44:14;1.05;;;0.90;;
62933;SDS011;49038;47.600;19.242;2022-09-01T21:47:16;3.05;;;0.95;;
62933;SDS011;49038;47.600;19.242;2022-09-01T21:50:19;1.85;;;0.90;;
62933;SDS011;49038;47.600;19.242;2022-09-01T21:53:23;5.10;;;0.93;;
62933;SDS011;49038;47.600;19.242;2022-09-01T21:56:25;0.90;;;0.90;;
62933;SDS011;49038;47.600;19.242;2022-09-01T21:59:27;2.25;;;0.80;;
62933;SDS011;49038;47.600;19.242;2022-09-01T22:02:30;8.07;;;0.95;;
62933;SDS011;49038;47.600;19.242;2022-09-01T22:05:33;1.87;;;1.40;;
62933;SDS011;49038;47.600;19.242;2022-09-01T22:08:37;2.28;;;1.05;;
62933;SDS011;49038;47.600;19.242;2022-09-01T22:11:42;9.07;;;1.98;;
62933;SDS011;49038;47.600;19.242;2022-09-01T22:14:44;0.85;;;0.82;;
62933;SDS011;49038;47.600;19.242;2022-09-01T22:17:47;2.50;;;1.10;;
62933;SDS011;49038;47.600;19.242;2022-09-01T22:20:49;0.80;;;0.80;;
62933;SDS011;49038;47.600;19.242;2022-09-01T22:23:52;1.85;;;1.08;;
62933;SDS011;49038;47.600;19.242;2022-09-01T22:26:54;1.73;;;0.70;;